Time;durP1;ratioP1;P1;durP2;ratioP2;P2;SDS_P1;SDS_P2;PMS_P1;PMS_P2;Temp;Humidity;BMP_temperature;BMP_pressure;BME280_temperature;BME280_humidity;BME280_pressure;Samples;Min_cycle;Max_cycle;Signal;HPM_P1;HPM_P2
2022/10/25 00:02:22;;;;;;;38.33;12.50;;;14.20;95.60;;;14.38;62.53;95417.09;5042928;28;20959;-54
2022/10/25 00:04:49;;;;;;;32.33;12.20;;;14.10;95.80;;;14.36;62.53;95413.78;5044722;28;20553;-56
2022/10/25 00:07:17;;;;;;;31.27;13.77;;;14.10;96.00;;;14.33;62.39;95406.97;5034504;28;20464;-56
2022/10/25 00:09:44;;;;;;;26.97;12.13;;;14.10;96.10;;;14.33;62.30;95412.25;5045247;28;20467;-59
2022/10/25 00:12:11;;;;;;;30.53;12.77;;;14.10;96.00;;;14.32;62.96;95407.13;5037841;28;20465;-56
2022/10/25 00:14:38;;;;;;;41.13;14.30;;;14.10;96.40;;;14.30;62.64;95406.44;5039339;28;20495;-53
2022/10/25 00:17:07;;;;;;;40.17;12.73;;;14.00;96.40;;;14.29;62.99;95420.66;5041545;28;21003;-55
2022/10/25 00:19:34;;;;;;;21.80;9.90;;;14.00;96.40;;;14.24;62.86;95426.38;5040649;28;20543;-53
2022/10/25 00:22:01;;;;;;;28.43;10.60;;;14.00;96.40;;;14.24;62.61;95417.63;5038227;28;20836;-55
2022/10/25 00:24:29;;;;;;;26.33;12.00;;;14.00;96.30;;;14.24;63.04;95429.03;5039264;28;20492;-55
2022/10/25 00:26:56;;;;;;;30.87;14.00;;;14.00;96.40;;;14.21;62.94;95426.69;5039848;28;20453;-55
2022/10/25 00:29:23;;;;;;;34.10;11.70;;;14.00;96.40;;;14.19;63.09;95430.44;5043182;28;20475;-56
2022/10/25 00:31:50;;;;;;;33.77;12.70;;;14.00;96.40;;;14.16;62.91;95415.72;5033964;28;20935;-54
2022/10/25 00:34:19;;;;;;;25.93;12.20;;;13.90;96.40;;;14.13;63.36;95410.72;5039217;28;20499;-54
2022/10/25 00:36:46;;;;;;;19.10;10.10;;;13.90;96.70;;;14.10;63.03;95409.19;5041323;28;20449;-56
2022/10/25 00:39:13;;;;;;;31.50;12.07;;;13.90;96.70;;;14.07;63.45;95411.31;5037870;28;20476;-58
2022/10/25 00:41:41;;;;;;;29.73;11.23;;;13.90;96.70;;;14.03;63.15;95409.94;5040472;28;20463;-54
2022/10/25 00:44:51;;;;;;;21.33;10.43;;;13.80;96.60;;;13.99;63.78;95404.94;5023339;28;20484;-55
2022/10/25 00:47:42;;;;;;;25.27;10.80;;;13.80;97.00;;;13.96;63.34;95410.53;5035623;28;20771;-55
2022/10/25 00:50:29;;;;;;;30.70;10.40;;;13.70;96.90;;;13.92;63.53;95409.16;5034051;28;20480;-54
2022/10/25 00:53:01;;;;;;;27.43;10.50;;;13.70;96.90;;;13.91;63.65;95401.38;5033888;28;20461;-54
2022/10/25 00:55:28;;;;;;;19.43;9.30;;;13.70;97.10;;;13.89;63.86;95400.69;5039634;28;20456;-53
2022/10/25 00:57:57;;;;;;;36.00;9.83;;;13.70;97.20;;;13.86;63.44;95393.88;5040532;28;20507;-54
2022/10/25 01:00:24;;;;;;;22.50;9.10;;;13.60;97.00;;;13.84;64.01;95393.19;5034138;28;20629;-54
2022/10/25 01:02:52;;;;;;;21.80;9.10;;;13.60;97.50;;;13.83;63.58;95391.53;5041142;28;20456;-55
2022/10/25 01:05:21;;;;;;;23.67;9.47;;;13.60;97.40;;;13.81;64.04;95394.31;5041182;28;20548;-54
2022/10/25 01:07:48;;;;;;;34.43;10.90;;;13.60;97.50;;;13.80;64.04;95384.72;5043113;28;20505;-55
2022/10/25 01:10:15;;;;;;;23.03;9.73;;;13.60;97.50;;;13.81;64.00;95391.66;5032901;28;20573;-54
2022/10/25 01:12:42;;;;;;;19.00;9.20;;;13.60;97.40;;;13.79;63.84;95393.63;5010496;28;20461;-55
2022/10/25 01:15:10;;;;;;;27.43;9.80;;;13.60;97.50;;;13.78;63.71;95388.50;5010830;28;20566;-55
2022/10/25 01:17:47;;;;;;;18.53;9.40;;;13.60;97.50;;;13.76;64.33;95390.47;5008386;28;20527;-55
2022/10/25 01:21:10;;;;;;;28.00;11.63;;;13.50;97.60;;;13.74;64.92;95389.75;5009113;28;21893;-55
2022/10/25 01:24:08;;;;;;;25.83;10.10;;;13.50;97.90;;;13.74;64.63;95392.41;5040882;28;20480;-56
2022/10/25 01:27:11;;;;;;;30.03;9.93;;;13.50;97.90;;;13.73;65.21;95390.75;5036444;28;20883;-54
2022/10/25 01:30:06;;;;;;;24.03;9.60;;;13.50;97.90;;;13.71;64.76;95398.84;5034402;28;20506;-53
2022/10/25 01:32:41;;;;;;;17.67;9.20;;;13.50;97.80;;;13.67;64.42;95389.53;5039197;28;20913;-54
2022/10/25 01:35:16;;;;;;;23.27;9.70;;;13.50;97.70;;;13.64;64.39;95387.16;5041066;28;20491;-54
2022/10/25 01:38:02;;;;;;;21.97;9.60;;;13.40;97.80;;;13.62;64.60;95378.56;5035698;28;20842;-53
2022/10/25 01:40:33;;;;;;;37.80;9.43;;;13.40;97.90;;;13.59;64.65;95387.59;5039609;28;20882;-54
2022/10/25 01:43:04;;;;;;;27.50;9.77;;;13.40;98.00;;;13.55;64.15;95383.56;5037576;28;20452;-57
2022/10/25 01:45:35;;;;;;;26.07;9.50;;;13.30;97.70;;;13.52;64.34;95380.41;5046961;28;20451;-59
2022/10/25 01:48:08;;;;;;;34.67;10.17;;;13.30;98.00;;;13.49;64.61;95381.50;5041212;28;20455;-55
2022/10/25 01:50:36;;;;;;;30.27;9.60;;;13.30;98.10;;;13.50;64.67;95380.53;5040921;28;20505;-53
2022/10/25 01:53:04;;;;;;;26.77;10.07;;;13.20;98.10;;;13.48;64.41;95385.16;5039459;28;21061;-55
2022/10/25 01:55:35;;;;;;;42.17;9.47;;;13.30;98.00;;;13.45;64.55;95377.50;5044241;28;20487;-55
2022/10/25 01:58:10;;;;;;;20.07;8.90;;;13.20;98.00;;;13.43;64.75;95384.72;5036201;28;20539;-53
2022/10/25 02:00:43;;;;;;;24.47;9.27;;;13.20;98.20;;;13.41;65.11;95389.34;5039967;28;20456;-54
2022/10/25 02:03:19;;;;;;;28.47;9.40;;;13.20;98.40;;;13.39;65.20;95381.56;5045523;28;20560;-55
2022/10/25 02:05:56;;;;;;;24.20;9.07;;;13.20;98.70;;;13.36;65.02;95375.75;5043475;28;20623;-54
2022/10/25 02:08:28;;;;;;;19.30;10.40;;;13.20;98.40;;;13.33;64.76;95371.56;5045881;28;20447;-54
2022/10/25 02:11:03;;;;;;;19.40;9.70;;;13.10;98.30;;;13.30;65.45;95371.81;5030291;28;20480;-55
2022/10/25 02:13:34;;;;;;;28.37;9.60;;;13.10;98.60;;;13.28;64.89;95379.88;5046736;28;20491;-54
2022/10/25 02:16:04;;;;;;;25.17;8.73;;;13.10;98.60;;;13.23;65.35;95366.28;5042740;28;20820;-53
2022/10/25 02:18:35;;;;;;;15.27;8.63;;;13.10;99.00;;;13.26;65.23;95383.66;5043212;28;20468;-55
2022/10/25 02:21:03;;;;;;;37.03;10.13;;;13.10;98.60;;;13.22;65.40;95377.81;5042925;28;20448;-56
2022/10/25 02:23:30;;;;;;;27.93;9.90;;;13.00;98.60;;;13.19;65.51;95375.47;5044976;28;20475;-53
2022/10/25 02:25:57;;;;;;;35.33;9.67;;;13.00;98.70;;;13.17;65.43;95366.88;5043980;28;20455;-54
2022/10/25 02:28:26;;;;;;;41.93;11.77;;;13.00;98.60;;;13.15;65.31;95371.47;5043087;28;21061;-54
2022/10/25 02:30:53;;;;;;;28.03;10.20;;;13.00;98.80;;;13.13;65.76;95364.66;5042110;28;20448;-55
2022/10/25 02:33:20;;;;;;;28.63;10.90;;;12.90;98.90;;;13.08;65.61;95365.91;5040068;28;20452;-54
2022/10/25 02:36:08;;;;;;;38.80;11.03;;;12.90;98.90;;;13.07;66.07;95376.63;5042321;28;20915;-55
2022/10/25 02:38:35;;;;;;;35.20;11.00;;;12.90;99.20;;;13.06;65.95;95380.25;5043258;28;20480;-55
2022/10/25 02:41:03;;;;;;;30.40;11.10;;;12.90;99.20;;;13.03;65.92;95381.34;5039128;28;20464;-53
2022/10/25 02:43:30;;;;;;;31.37;11.20;;;12.90;99.30;;;13.02;65.73;95368.28;5046910;28;20471;-54
2022/10/25 02:45:58;;;;;;;24.73;11.30;;;12.80;99.40;;;12.97;65.96;95367.91;5043203;28;20465;-54
2022/10/25 02:48:25;;;;;;;25.03;11.40;;;12.80;99.20;;;12.95;66.18;95373.31;5042891;28;20878;-54
2022/10/25 02:50:52;;;;;;;38.63;13.50;;;12.80;99.40;;;12.92;66.41;95368.31;5036283;28;20466;-55
2022/10/25 02:53:21;;;;;;;34.17;10.80;;;12.70;99.40;;;12.89;66.30;95368.59;5045115;28;20464;-55
2022/10/25 02:55:48;;;;;;;39.33;10.70;;;12.70;99.40;;;12.87;66.67;95370.53;5042659;28;20558;-54
2022/10/25 02:58:15;;;;;;;34.73;13.03;;;12.70;99.50;;;12.85;66.24;95362.75;5039955;28;20459;-55
2022/10/25 03:00:43;;;;;;;27.87;13.77;;;12.70;99.60;;;12.83;66.07;95359.44;5036472;28;20906;-55
2022/10/25 03:03:10;;;;;;;35.83;13.10;;;12.70;99.30;;;12.79;66.41;95355.41;5044728;28;20780;-53
2022/10/25 03:05:37;;;;;;;35.90;14.33;;;12.60;99.40;;;12.76;66.78;95362.78;5043194;28;20510;-55
2022/10/25 03:08:05;;;;;;;23.60;12.60;;;12.60;99.80;;;12.74;66.73;95355.00;5043204;28;20444;-56
2022/10/25 03:10:36;;;;;;;43.97;13.90;;;12.50;99.70;;;12.73;66.91;95358.59;5039368;28;20452;-56
2022/10/25 03:13:03;;;;;;;29.57;13.03;;;12.50;99.70;;;12.72;66.81;95362.25;5034665;28;20630;-56
2022/10/25 03:15:30;;;;;;;32.90;13.60;;;12.50;99.80;;;12.70;67.12;95364.16;5038509;28;20499;-55
2022/10/25 03:17:58;;;;;;;38.37;12.40;;;12.50;99.70;;;12.69;66.52;95365.97;5033271;28;20452;-56
2022/10/25 03:20:25;;;;;;;44.73;14.10;;;12.50;99.90;;;12.65;66.95;95359.31;5040398;28;20479;-53
2022/10/25 03:22:52;;;;;;;33.40;13.43;;;12.50;99.90;;;12.62;66.96;95358.75;5033623;28;20505;-55
2022/10/25 03:25:19;;;;;;;27.73;13.00;;;12.50;99.90;;;12.60;66.48;95366.81;5040976;28;20530;-55
2022/10/25 03:27:48;;;;;;;40.47;14.43;;;12.40;99.70;;;12.58;66.78;95362.66;5043344;28;20448;-55
2022/10/25 03:30:15;;;;;;;32.37;12.50;;;12.40;99.90;;;12.57;66.95;95367.09;5039468;28;20471;-54
2022/10/25 03:32:43;;;;;;;33.67;14.53;;;12.40;99.90;;;12.52;66.86;95359.59;5039949;28;20452;-58
2022/10/25 03:35:10;;;;;;;35.90;14.33;;;12.40;99.90;;;12.51;66.93;95359.75;5032100;28;20505;-55
2022/10/25 03:37:37;;;;;;;37.20;13.80;;;12.40;99.90;;;12.47;66.89;95360.97;5030929;28;20461;-56
2022/10/25 03:40:06;;;;;;;35.33;15.50;;;12.30;99.90;;;12.45;67.23;95361.13;5035725;28;20499;-55
2022/10/25 03:42:33;;;;;;;32.73;14.53;;;12.30;99.90;;;12.42;67.26;95353.50;5040762;28;20475;-57
2022/10/25 03:45:02;;;;;;;36.40;14.27;;;12.20;99.90;;;12.36;67.31;95361.97;5032721;28;20590;-54
2022/10/25 03:47:29;;;;;;;40.90;15.50;;;12.20;99.90;;;12.31;67.39;95361.53;5036996;28;20451;-54
2022/10/25 03:49:56;;;;;;;46.77;14.90;;;12.20;99.90;;;12.28;67.39;95353.91;5037916;28;20965;-55
2022/10/25 03:52:24;;;;;;;46.93;15.20;;;12.10;99.90;;;12.22;67.10;95355.28;5036829;28;20460;-54
2022/10/25 03:54:51;;;;;;;47.30;14.20;;;12.10;99.90;;;12.17;67.51;95353.06;5040662;28;20496;-55
2022/10/25 03:57:19;;;;;;;47.73;13.67;;;12.00;99.90;;;12.13;68.13;95356.97;5035819;28;20522;-56
2022/10/25 03:59:46;;;;;;;36.67;13.93;;;12.00;99.90;;;12.12;68.40;95360.56;5043150;28;20488;-54
2022/10/25 04:02:15;;;;;;;41.43;13.97;;;12.00;99.90;;;12.14;68.42;95366.53;5035409;28;21026;-55
2022/10/25 04:04:42;;;;;;;33.70;13.30;;;11.90;99.90;;;12.17;68.77;95365.41;4986712;28;1187397;-56
2022/10/25 04:07:09;;;;;;;30.57;14.20;;;12.00;99.90;;;12.19;68.09;95366.97;5035722;28;20213;-56
2022/10/25 04:09:36;;;;;;;45.53;15.07;;;12.00;99.90;;;12.18;68.13;95354.75;5042051;28;20475;-56
2022/10/25 04:12:04;;;;;;;32.07;14.73;;;12.00;99.90;;;12.20;68.41;95357.25;5041766;28;20461;-55
2022/10/25 04:14:32;;;;;;;44.57;16.30;;;12.00;99.90;;;12.22;68.06;95357.09;5045100;28;20559;-54
2022/10/25 04:16:59;;;;;;;32.27;14.83;;;12.00;99.90;;;12.23;68.11;95356.13;5041737;28;20820;-55
2022/10/25 04:19:28;;;;;;;45.87;16.63;;;12.00;99.90;;;12.23;67.93;95350.88;5033758;28;20502;-54
2022/10/25 04:21:55;;;;;;;32.37;16.50;;;12.00;99.90;;;12.23;68.32;95356.13;5039482;28;20463;-54
2022/10/25 04:24:22;;;;;;;42.40;14.53;;;12.10;99.90;;;12.23;67.88;95361.41;5032088;28;20607;-54
2022/10/25 04:26:49;;;;;;;38.30;14.73;;;12.00;99.90;;;12.22;68.20;95365.00;5034266;28;20589;-55
2022/10/25 04:29:17;;;;;;;34.60;15.87;;;12.10;99.90;;;12.21;68.50;95366.81;5045086;28;20633;-57
2022/10/25 04:31:44;;;;;;;53.03;15.63;;;12.00;99.90;;;12.19;68.23;95369.59;5039020;28;20517;-54
2022/10/25 04:34:11;;;;;;;44.80;15.00;;;12.00;99.90;;;12.17;68.06;95368.88;5041871;28;20483;-55
2022/10/25 04:36:40;;;;;;;39.50;17.23;;;12.00;99.90;;;12.16;68.15;95361.97;5040875;28;20870;-54
2022/10/25 04:39:07;;;;;;;44.63;16.60;;;12.00;99.90;;;12.16;68.11;95359.31;5040703;28;20475;-54
2022/10/25 04:41:35;;;;;;;37.13;16.30;;;12.00;99.90;;;12.15;68.00;95359.47;5034603;28;20468;-56
2022/10/25 04:44:02;;;;;;;62.77;23.90;;;12.00;99.90;;;12.11;67.83;95364.16;5030870;28;20550;-54
2022/10/25 04:46:29;;;;;;;58.00;21.23;;;11.90;99.90;;;12.08;67.91;95367.06;5025016;28;20522;-57
2022/10/25 04:48:56;;;;;;;52.93;19.83;;;11.90;99.90;;;12.07;67.96;95368.06;5037775;28;20537;-55
2022/10/25 04:51:24;;;;;;;43.40;17.60;;;11.90;99.90;;;12.06;67.73;95362.91;5042036;28;20463;-56
2022/10/25 04:53:54;;;;;;;57.90;20.03;;;11.90;99.90;;;12.04;68.05;95362.22;5037312;28;20479;-54
2022/10/25 04:56:22;;;;;;;59.13;21.67;;;11.90;99.90;;;12.02;68.15;95371.09;5039874;28;20499;-54
2022/10/25 04:58:49;;;;;;;39.90;18.90;;;11.80;99.90;;;12.00;68.32;95367.75;5039050;28;20473;-54
2022/10/25 05:01:17;;;;;;;55.90;20.77;;;11.90;99.90;;;12.00;68.00;95374.84;5043039;28;20455;-56
2022/10/25 05:03:45;;;;;;;58.80;18.77;;;11.90;99.90;;;11.99;68.20;95376.66;5040444;28;20479;-55
2022/10/25 05:06:14;;;;;;;51.47;18.30;;;11.80;99.90;;;11.98;68.27;95374.16;5039548;28;20953;-54
2022/10/25 05:08:42;;;;;;;59.93;19.97;;;11.80;99.90;;;11.95;68.26;95375.25;5038606;28;20460;-54
2022/10/25 05:11:12;;;;;;;48.93;18.20;;;11.80;99.90;;;11.93;68.99;95366.66;5040403;28;20513;-54
2022/10/25 05:13:40;;;;;;;69.33;20.77;;;11.80;99.90;;;11.95;68.44;95364.69;5042011;28;20472;-57
2022/10/25 05:16:09;;;;;;;46.40;18.77;;;11.80;99.90;;;12.00;68.75;95380.09;5041828;28;21076;-55
2022/10/25 05:18:36;;;;;;;38.87;19.53;;;11.80;99.90;;;12.07;68.40;95380.38;5042108;28;20537;-53
2022/10/25 05:21:05;;;;;;;45.90;17.73;;;11.90;99.90;;;12.12;68.54;95373.75;5039737;28;20531;-54
2022/10/25 05:23:33;;;;;;;73.07;19.70;;;11.90;99.90;;;12.19;68.00;95376.66;5040045;28;20533;-54
2022/10/25 05:26:04;;;;;;;64.03;19.63;;;12.00;99.90;;;12.26;68.10;95383.06;5038025;28;20461;-56
2022/10/25 05:28:32;;;;;;;50.27;18.03;;;12.10;99.90;;;12.34;68.00;95390.28;5042005;28;20826;-53
2022/10/25 05:31:04;;;;;;;88.37;19.13;;;12.10;99.90;;;12.41;67.62;95387.91;5039896;28;20456;-56
2022/10/25 05:33:31;;;;;;;69.53;20.10;;;12.20;99.90;;;12.47;67.64;95398.78;5041120;28;20579;-56
2022/10/25 05:35:59;;;;;;;61.87;21.20;;;12.30;99.90;;;12.54;67.44;95404.31;5038501;28;20488;-55
2022/10/25 05:38:27;;;;;;;60.73;18.70;;;12.30;99.90;;;12.63;67.25;95410.59;5034930;28;20575;-54
2022/10/25 05:40:54;;;;;;;43.77;19.50;;;12.40;99.90;;;12.73;66.81;95406.13;5037575;28;20475;-54
2022/10/25 05:43:21;;;;;;;54.57;19.43;;;12.50;99.90;;;12.83;66.63;95406.94;5041724;28;20839;-57
2022/10/25 05:45:50;;;;;;;40.63;15.80;;;12.60;99.90;;;12.96;66.40;95416.38;5040260;28;21035;-56
2022/10/25 05:48:18;;;;;;;44.13;17.50;;;12.70;99.90;;;13.11;66.28;95419.44;5035992;28;20518;-56
2022/10/25 05:50:46;;;;;;;50.40;17.83;;;12.90;99.90;;;13.25;65.85;95416.34;5043936;28;20579;-55
2022/10/25 05:53:13;;;;;;;48.60;17.60;;;13.00;99.90;;;13.48;65.68;95427.44;5040698;28;20971;-54
2022/10/25 05:55:41;;;;;;;44.77;19.83;;;13.20;99.90;;;13.79;65.17;95435.13;5042027;28;20910;-55
2022/10/25 05:58:09;;;;;;;57.10;17.20;;;13.50;99.80;;;14.12;64.41;95430.22;5040866;28;20463;-55
2022/10/25 06:00:36;;;;;;;54.00;17.57;;;13.70;99.20;;;14.50;63.22;95428.28;5040288;28;20948;-53
2022/10/25 06:03:05;;;;;;;35.63;18.47;;;14.10;98.90;;;14.88;62.60;95435.13;5041085;28;20464;-55
2022/10/25 06:05:33;;;;;;;65.07;17.70;;;14.50;98.40;;;15.29;61.68;95441.75;5041612;28;20851;-57
2022/10/25 06:08:00;;;;;;;47.30;18.20;;;14.80;97.80;;;15.62;60.54;95448.09;5041169;28;20448;-58
2022/10/25 06:10:27;;;;;;;68.13;18.97;;;15.10;96.90;;;15.89;59.84;95446.28;5042944;28;20479;-55
2022/10/25 06:12:55;;;;;;;52.73;18.63;;;15.40;96.30;;;16.13;59.54;95453.53;5043525;28;20448;-55
2022/10/25 06:15:22;;;;;;;39.17;19.30;;;15.70;95.90;;;16.39;58.96;95448.16;5040194;28;20500;-55
2022/10/25 06:17:49;;;;;;;47.37;16.80;;;16.00;95.30;;;16.62;58.15;95439.56;5041475;28;20884;-55
2022/10/25 06:20:18;;;;;;;53.77;16.13;;;16.20;94.70;;;16.77;57.46;95440.59;5041241;28;20908;-55
2022/10/25 06:22:45;;;;;;;56.67;16.70;;;16.30;94.10;;;16.97;57.22;95446.44;5043926;28;20456;-56
2022/10/25 06:25:12;;;;;;;48.57;13.60;;;16.50;93.80;;;17.22;56.52;95437.66;5041884;28;20471;-55
2022/10/25 06:27:39;;;;;;;35.47;15.13;;;16.70;93.60;;;17.45;56.32;95441.28;5042832;28;20509;-55
2022/10/25 06:30:09;;;;;;;44.40;15.40;;;16.90;93.10;;;17.61;56.18;95436.94;5039874;28;20901;-54
2022/10/25 06:32:36;;;;;;;35.80;15.73;;;17.10;92.70;;;17.85;55.42;95444.03;5041371;28;20963;-55
2022/10/25 06:35:06;;;;;;;28.83;15.20;;;17.20;92.50;;;18.26;55.28;95436.78;5036810;28;21019;-54
2022/10/25 06:37:34;;;;;;;53.13;15.93;;;17.60;92.70;;;18.88;54.70;95444.94;5035210;28;20471;-56
2022/10/25 06:40:01;;;;;;;39.73;16.23;;;18.20;92.60;;;19.51;54.53;95450.94;5042482;28;20475;-56
2022/10/25 06:42:29;;;;;;;50.63;15.07;;;18.80;92.10;;;20.14;53.42;95450.63;5043295;28;20825;-56
2022/10/25 06:44:56;;;;;;;36.30;14.80;;;19.40;91.50;;;20.74;52.60;95446.03;5039588;28;20475;-56
2022/10/25 06:47:23;;;;;;;61.27;17.53;;;20.00;90.90;;;21.37;51.49;95440.91;5041480;28;20578;-55
2022/10/25 06:49:50;;;;;;;50.57;16.00;;;20.60;89.40;;;21.92;50.48;95430.44;5044688;28;20470;-55
2022/10/25 06:52:18;;;;;;;55.73;15.20;;;21.20;87.50;;;22.43;50.02;95434.59;5047471;28;20467;-54
2022/10/25 06:54:46;;;;;;;49.10;15.70;;;21.70;84.70;;;22.97;48.73;95430.25;5044422;28;20578;-58
2022/10/25 06:57:14;;;;;;;43.13;15.77;;;22.30;82.80;;;23.44;47.90;95433.03;5045815;28;20644;-55
2022/10/25 06:59:41;;;;;;;36.13;14.20;;;22.80;80.40;;;23.90;46.43;95434.84;5044599;28;21011;-55
2022/10/25 07:02:09;;;;;;;39.97;15.17;;;23.30;77.80;;;24.34;45.76;95429.81;5044534;28;20522;-54
2022/10/25 07:04:36;;;;;;;43.07;16.60;;;23.80;75.90;;;24.70;45.55;95426.56;5039277;28;20476;-54
2022/10/25 07:07:04;;;;;;;41.43;16.33;;;24.20;73.30;;;25.04;44.22;95429.09;5044830;28;20452;-55
2022/10/25 07:09:31;;;;;;;55.03;15.83;;;24.70;71.60;;;25.35;43.55;95436.34;5047482;28;20475;-55
2022/10/25 07:11:59;;;;;;;45.93;17.53;;;25.00;68.60;;;25.76;43.09;95437.69;5045085;28;20451;-56
2022/10/25 07:14:27;;;;;;;57.50;20.13;;;25.40;66.90;;;26.21;42.27;95436.66;5045795;28;20546;-56
2022/10/25 07:16:54;;;;;;;57.93;19.70;;;25.90;65.10;;;26.68;40.75;95425.34;5037585;28;20502;-59
2022/10/25 07:19:23;;;;;;;62.47;19.80;;;26.50;61.80;;;27.04;40.46;95418.19;5043226;28;21033;-54
2022/10/25 07:21:50;;;;;;;47.90;20.33;;;26.90;60.10;;;27.34;39.73;95426.31;5045588;28;20581;-55
2022/10/25 07:24:18;;;;;;;47.73;18.63;;;27.30;59.20;;;27.63;38.89;95431.06;5044967;28;20463;-55
2022/10/25 07:26:45;;;;;;;64.03;19.47;;;27.60;58.30;;;27.95;38.44;95420.75;5043694;28;20482;-56
2022/10/25 07:29:14;;;;;;;57.30;19.10;;;28.00;57.30;;;28.26;38.29;95419.53;5043086;28;20537;-55
2022/10/25 07:31:43;;;;;;;64.00;19.80;;;28.30;56.00;;;28.45;37.13;95416.69;5043564;28;20463;-55
2022/10/25 07:34:11;;;;;;;41.43;18.57;;;28.70;54.90;;;28.61;36.85;95424.09;5044582;28;20549;-56
2022/10/25 07:36:38;;;;;;;55.47;19.70;;;28.80;53.90;;;28.71;36.61;95428.88;5044252;28;20518;-56
2022/10/25 07:39:06;;;;;;;54.00;19.97;;;28.90;53.40;;;28.80;36.17;95429.34;5041564;28;20963;-56
2022/10/25 07:41:33;;;;;;;45.03;19.30;;;28.90;52.90;;;28.95;36.50;95439.63;5041670;28;20444;-55
2022/10/25 07:44:00;;;;;;;52.37;19.17;;;28.90;52.80;;;29.13;36.34;95435.91;5045859;28;20509;-56
2022/10/25 07:46:29;;;;;;;62.43;20.53;;;28.90;52.20;;;29.30;35.42;95428.66;5042322;28;20459;-55
2022/10/25 07:48:56;;;;;;;53.37;19.40;;;29.00;52.00;;;29.48;35.52;95418.66;5044678;28;20467;-55
2022/10/25 07:51:23;;;;;;;53.30;19.87;;;29.10;51.50;;;29.65;34.72;95405.94;5041559;28;20710;-56
2022/10/25 07:53:51;;;;;;;47.43;19.63;;;29.30;51.10;;;29.77;34.76;95407.72;5040037;28;20545;-55
2022/10/25 07:56:19;;;;;;;42.80;20.20;;;29.40;50.40;;;29.92;34.20;95418.84;5044693;28;20499;-55
2022/10/25 07:58:46;;;;;;;45.97;19.27;;;29.50;50.40;;;30.07;34.20;95411.97;5043615;28;20471;-55
2022/10/25 08:01:14;;;;;;;83.77;24.00;;;29.60;50.00;;;30.24;33.92;95412.78;5042043;28;20517;-53
2022/10/25 08:03:43;;;;;;;53.80;21.27;;;29.80;49.50;;;30.32;33.89;95417.78;5043486;28;20968;-55
2022/10/25 08:06:10;;;;;;;48.10;21.20;;;29.90;49.20;;;30.37;33.22;95422.44;5035555;28;20962;-56
2022/10/25 08:08:37;;;;;;;52.20;20.53;;;29.90;48.70;;;30.46;33.29;95420.97;5045446;28;20467;-56
2022/10/25 08:11:06;;;;;;;59.23;20.00;;;30.00;49.10;;;30.61;33.56;95428.47;5046352;28;20486;-55
2022/10/25 08:13:35;;;;;;;61.67;19.50;;;30.10;48.30;;;30.78;33.29;95416.72;5043281;28;20489;-57
2022/10/25 08:16:02;;;;;;;44.77;19.80;;;30.20;47.70;;;30.91;32.76;95409.00;5044725;28;20584;-55
2022/10/25 08:18:30;;;;;;;49.53;20.23;;;30.30;47.50;;;31.01;32.58;95408.31;5039086;28;20463;-58
2022/10/25 08:20:58;;;;;;;64.37;20.97;;;30.40;47.00;;;31.18;31.92;95410.13;5044007;28;20528;-56
2022/10/25 08:23:25;;;;;;;58.27;21.17;;;30.60;47.00;;;31.32;32.04;95396.94;5044230;28;20521;-56
2022/10/25 08:25:53;;;;;;;49.43;20.30;;;30.70;46.20;;;31.38;31.81;95399.44;5042742;28;20945;-54
2022/10/25 08:28:20;;;;;;;44.43;17.93;;;30.70;46.00;;;31.44;31.47;95392.94;5042296;28;20451;-56
2022/10/25 08:30:47;;;;;;;50.90;14.50;;;30.80;45.60;;;31.49;31.53;95388.66;5041575;28;20933;-56
2022/10/25 08:33:15;;;;;;;41.57;15.50;;;30.80;45.60;;;31.56;31.21;95392.00;5042351;28;20964;-56
2022/10/25 08:35:42;;;;;;;44.87;15.37;;;30.90;45.50;;;31.71;30.82;95392.09;5044462;28;20205;-54
2022/10/25 08:38:10;;;;;;;44.67;14.03;;;31.10;45.30;;;31.92;31.16;95395.00;5033130;28;20617;-56
2022/10/25 08:40:47;;;;;;;39.77;14.77;;;31.20;45.00;;;32.16;30.53;95392.69;5043560;28;20196;-56
2022/10/25 08:43:25;;;;;;;48.00;14.57;;;31.40;44.60;;;32.29;30.01;95386.78;5039364;28;20292;-57
2022/10/25 08:45:55;;;;;;;38.83;13.97;;;31.60;43.90;;;32.19;30.38;95375.03;5038832;28;20330;-56
2022/10/25 08:48:25;;;;;;;29.00;13.13;;;31.60;43.70;;;32.16;30.04;95376.38;5040420;28;20196;-56
2022/10/25 08:50:54;;;;;;;33.20;13.30;;;31.60;43.40;;;32.05;30.62;95369.19;5037499;28;20200;-55
2022/10/25 08:53:25;;;;;;;39.20;13.50;;;31.40;43.40;;;32.05;30.32;95371.94;5043547;28;20208;-55
2022/10/25 08:55:52;;;;;;;48.23;13.47;;;31.50;43.30;;;32.08;30.08;95369.50;5040907;28;20674;-55
2022/10/25 08:58:24;;;;;;;28.77;12.90;;;31.40;43.10;;;32.16;29.83;95365.47;5042260;28;20274;-54
2022/10/25 09:00:52;;;;;;;39.50;14.73;;;31.50;43.20;;;32.16;29.70;95365.47;5041412;28;20210;-54
2022/10/25 09:03:24;;;;;;;39.47;14.30;;;31.50;42.50;;;32.12;29.90;95373.34;5044648;28;20651;-55
2022/10/25 09:05:59;;;;;;;47.53;13.87;;;31.50;42.70;;;32.26;29.78;95368.25;5040730;28;20220;-53
2022/10/25 09:08:40;;;;;;;39.97;16.07;;;31.60;42.90;;;32.52;29.72;95368.38;5044131;28;20227;-56
2022/10/25 09:11:17;;;;;;;37.83;13.70;;;31.80;42.90;;;32.75;29.68;95367.13;5039064;28;20207;-54
2022/10/25 09:13:50;;;;;;;47.38;15.65;;;32.00;42.60;;;33.02;29.34;95371.53;5037590;28;20225;-55
2022/10/25 09:16:18;;;;;;;42.40;14.03;;;32.20;42.30;;;33.26;29.52;95369.13;5042301;28;20227;-55
2022/10/25 09:18:50;;;;;;;52.60;15.20;;;32.50;42.20;;;33.46;28.83;95360.13;5039016;28;20229;-55
2022/10/25 09:21:20;;;;;;;44.00;15.13;;;32.70;41.60;;;33.58;28.52;95368.06;5045531;28;20207;-55
2022/10/25 09:23:57;;;;;;;49.13;14.13;;;32.90;41.20;;;33.69;27.88;95363.41;5038643;28;20233;-55
2022/10/25 09:26:39;;;;;;;43.90;14.47;;;33.00;41.30;;;33.63;28.12;95364.50;5043049;28;20300;-55
2022/10/25 09:29:18;;;;;;;37.45;14.98;;;33.00;40.50;;;33.60;28.19;95354.94;5042877;28;20306;-56
2022/10/25 09:31:49;;;;;;;49.22;13.18;;;32.90;40.50;;;33.61;28.02;95358.50;5040348;28;20638;-55
2022/10/25 09:34:17;;;;;;;71.28;14.60;;;32.90;40.40;;;33.55;28.36;95350.31;5035417;28;20757;-54
2022/10/25 09:36:46;;;;;;;54.83;14.65;;;32.90;40.50;;;33.58;28.08;95340.78;5040314;28;20275;-55
2022/10/25 09:39:20;;;;;;;33.70;14.18;;;32.90;40.50;;;33.64;27.69;95336.16;5035747;28;20704;-55
2022/10/25 09:41:50;;;;;;;53.83;13.60;;;33.00;39.80;;;33.62;28.11;95335.56;5042777;28;20283;-56
2022/10/25 09:44:26;;;;;;;48.03;13.27;;;33.00;40.20;;;33.61;27.71;95331.25;5035882;28;20228;-54
2022/10/25 09:46:54;;;;;;;46.72;14.07;;;32.90;40.20;;;33.62;28.31;95320.06;5043103;28;20212;-55
2022/10/25 09:49:27;;;;;;;35.25;13.00;;;33.00;40.10;;;33.65;27.78;95324.13;5039008;28;20221;-55
2022/10/25 09:51:59;;;;;;;51.55;13.05;;;33.00;40.10;;;33.68;27.87;95323.56;5041487;28;20207;-55
2022/10/25 09:54:31;;;;;;;41.83;13.52;;;33.00;40.10;;;33.74;27.51;95322.50;5040141;28;20372;-54
2022/10/25 09:56:59;;;;;;;47.83;14.80;;;33.00;39.80;;;33.76;28.32;95320.34;5042358;28;20221;-55
2022/10/25 09:59:27;;;;;;;48.88;13.05;;;33.10;40.00;;;33.78;27.77;95309.13;5037030;28;20348;-55
2022/10/25 10:01:54;;;;;;;36.92;13.55;;;33.10;40.00;;;33.84;28.25;95306.13;5045609;28;20235;-55
2022/10/25 10:04:27;;;;;;;42.90;12.48;;;33.10;39.90;;;33.83;27.85;95299.00;5042867;28;20232;-55
2022/10/25 10:06:57;;;;;;;46.92;14.40;;;33.20;39.60;;;33.80;28.30;95296.03;5042028;28;20230;-56
2022/10/25 10:09:24;;;;;;;45.53;13.45;;;33.10;39.90;;;33.74;27.91;95301.50;5038374;28;20312;-54
2022/10/25 10:11:53;;;;;;;49.10;13.43;;;33.10;39.70;;;33.66;28.37;95288.38;5041334;28;20254;-53
2022/10/25 10:14:27;;;;;;;47.90;12.48;;;33.00;39.60;;;33.58;28.10;95287.03;5035718;28;20583;-56
2022/10/25 10:16:56;;;;;;;40.83;13.30;;;33.00;39.80;;;33.51;28.11;95286.50;5042929;28;20643;-55
2022/10/25 10:19:24;;;;;;;38.53;14.30;;;32.90;39.70;;;33.40;28.28;95290.31;5038514;28;20705;-54